createdAt,value
2019-04-01T00:01:28.863Z,5.90
2019-04-01T00:03:58.586Z,5.78
2019-04-01T00:06:28.316Z,5.69
2019-04-01T00:08:58.252Z,5.69
2019-04-01T00:11:28.086Z,5.79
2019-04-01T00:13:57.928Z,5.65
2019-04-01T00:16:28.673Z,5.55
2019-04-01T00:19:03.291Z,5.58
2019-04-01T00:21:29.888Z,5.45
2019-04-01T00:23:59.716Z,5.37
2019-04-01T00:26:29.438Z,5.43
2019-04-01T00:28:59.357Z,5.34
2019-04-01T00:31:29.310Z,5.37
2019-04-01T00:33:59.152Z,5.27
2019-04-01T00:36:29.086Z,5.31
2019-04-01T00:38:58.912Z,5.24
2019-04-01T00:41:28.644Z,5.21
2019-04-01T00:44:00.121Z,5.27
2019-04-01T00:46:30.151Z,5.35
2019-04-01T00:48:59.992Z,5.33
2019-04-01T00:51:29.928Z,5.31
2019-04-01T00:53:59.965Z,5.32
2019-04-01T00:56:29.903Z,5.33
2019-04-01T00:58:59.626Z,5.40
2019-04-01T01:01:29.568Z,5.29
2019-04-01T01:03:59.505Z,5.33
2019-04-01T01:06:29.337Z,5.26
2019-04-01T01:08:59.273Z,5.18
2019-04-01T01:11:29.208Z,5.28
2019-04-01T01:13:59.033Z,5.16
2019-04-01T01:16:28.874Z,5.18
2019-04-01T01:18:58.810Z,5.13
2019-04-01T01:21:28.747Z,5.08
2019-04-01T01:23:58.582Z,5.09
2019-04-01T01:26:28.404Z,4.99
2019-04-01T01:28:58.348Z,4.89
2019-04-01T01:31:28.283Z,4.77
2019-04-01T01:33:58.109Z,4.75
2019-04-01T01:36:28.052Z,4.90
2019-04-01T01:38:57.878Z,4.78
2019-04-01T01:41:27.718Z,4.70
2019-04-01T01:43:57.657Z,4.61
2019-04-01T01:46:27.590Z,4.59
2019-04-01T01:48:57.423Z,4.50
2019-04-01T01:51:27.249Z,4.42
2019-04-01T01:53:57.192Z,4.43
2019-04-01T01:56:27.027Z,4.41
2019-04-01T01:58:56.850Z,4.31
2019-04-01T02:01:26.795Z,4.26
2019-04-01T02:03:56.730Z,4.28
2019-04-01T02:06:26.568Z,4.26
2019-04-01T02:08:56.502Z,4.20
2019-04-01T02:11:26.333Z,4.16
2019-04-01T02:13:56.169Z,4.16
2019-04-01T02:16:25.991Z,4.17
2019-04-01T02:18:55.935Z,4.13
2019-04-01T02:21:25.768Z,4.06
2019-04-01T02:23:55.593Z,4.17
2019-04-01T02:26:25.426Z,4.13
2019-04-01T02:28:55.269Z,4.07
2019-04-01T02:31:25.203Z,4.08
2019-04-01T02:33:55.141Z,4.13
2019-04-01T02:36:24.869Z,4.08
2019-04-01T02:38:54.704Z,4.07
2019-04-01T02:41:24.434Z,4.03
2019-04-01T02:43:54.268Z,4.01
2019-04-01T02:46:24.205Z,3.92
2019-04-01T02:48:54.139Z,3.95
2019-04-01T02:51:23.977Z,3.91
2019-04-01T02:53:53.908Z,3.88
2019-04-01T02:56:23.845Z,3.84
2019-04-01T02:58:53.780Z,3.86
2019-04-01T03:01:23.614Z,3.84
2019-04-01T03:03:53.346Z,3.81
2019-04-01T03:06:23.281Z,3.88
2019-04-01T03:08:53.003Z,3.83
2019-04-01T03:11:22.948Z,3.83
2019-04-01T03:13:52.885Z,3.85
2019-04-01T03:16:22.718Z,3.87
2019-04-01T03:18:52.652Z,3.89
2019-04-01T03:21:22.477Z,3.88
2019-04-01T03:23:52.426Z,3.86
2019-04-01T03:26:22.248Z,3.87
2019-04-01T03:28:51.775Z,3.80
2019-04-01T03:31:21.629Z,3.88
2019-04-01T03:33:51.652Z,3.86
2019-04-01T03:36:21.482Z,3.88
2019-04-01T03:38:51.414Z,3.96
2019-04-01T03:41:21.574Z,3.95
2019-04-01T03:43:51.384Z,3.96
2019-04-01T03:46:21.219Z,4.00
2019-04-01T03:48:51.064Z,4.04
2019-04-01T03:51:20.896Z,4.07
2019-04-01T03:53:50.829Z,4.07
2019-04-01T03:56:20.662Z,4.10
2019-04-01T03:58:50.521Z,4.16
2019-04-01T04:01:20.534Z,4.20
2019-04-01T04:03:50.161Z,4.26
2019-04-01T04:06:20.201Z,4.33
2019-04-01T04:08:50.068Z,4.40
2019-04-01T04:11:20.276Z,4.43
2019-04-01T04:13:50.108Z,4.49
2019-04-01T04:16:20.045Z,4.61
2019-04-01T04:18:50.762Z,4.70
2019-04-01T04:21:23.804Z,4.77
2019-04-01T04:23:51.695Z,4.84
2019-04-01T04:26:21.539Z,4.94
2019-04-01T04:28:51.462Z,5.01
2019-04-01T04:31:20.999Z,5.09
2019-04-01T04:33:50.922Z,5.15
2019-04-01T04:36:20.860Z,5.23
2019-04-01T04:38:50.793Z,5.38
2019-04-01T04:41:20.628Z,5.52
2019-04-01T04:43:50.665Z,5.68
2019-04-01T04:46:21.269Z,5.85
2019-04-01T04:48:51.151Z,6.02
2019-04-01T04:51:20.975Z,6.20
2019-04-01T04:53:50.816Z,6.27
2019-04-01T04:56:20.752Z,6.35
2019-04-01T04:58:50.687Z,6.40
2019-04-01T05:01:20.622Z,6.49
2019-04-01T05:03:50.448Z,6.57
2019-04-01T05:06:20.289Z,6.72
2019-04-01T05:08:50.225Z,6.91
2019-04-01T05:11:19.949Z,6.99
2019-04-01T05:13:49.892Z,7.05
2019-04-01T05:16:19.828Z,7.23
2019-04-01T05:18:49.663Z,7.40
2019-04-01T05:21:19.384Z,7.66
2019-04-01T05:23:49.327Z,7.84
2019-04-01T05:26:19.264Z,7.74
2019-04-01T05:28:49.200Z,7.79
2019-04-01T05:31:19.639Z,8.07
2019-04-01T05:33:55.213Z,8.31
2019-04-01T05:36:20.745Z,8.34
2019-04-01T05:38:50.680Z,8.59
2019-04-01T05:41:20.619Z,9.00
2019-04-01T05:43:50.449Z,9.18
2019-04-01T05:46:21.816Z,9.39
2019-04-01T05:48:51.753Z,9.47
2019-04-01T05:51:21.578Z,9.75
2019-04-01T05:53:51.409Z,9.94
2019-04-01T05:56:21.243Z,10.34
2019-04-01T05:58:51.076Z,10.42
2019-04-01T06:01:22.854Z,10.36
2019-04-01T06:03:52.695Z,10.46
2019-04-01T06:06:22.633Z,10.63
2019-04-01T06:08:52.353Z,10.68
2019-04-01T06:11:22.186Z,11.02
2019-04-01T06:13:52.018Z,10.86
2019-04-01T06:16:21.862Z,10.86
2019-04-01T06:18:51.697Z,11.10
2019-04-01T06:21:21.631Z,11.34
2019-04-01T06:23:51.455Z,11.66
2019-04-01T06:26:21.400Z,11.87
2019-04-01T06:28:51.335Z,11.75
2019-04-01T06:31:21.273Z,11.65
2019-04-01T06:34:01.034Z,11.52
2019-04-01T06:36:33.416Z,11.33
2019-04-01T06:39:04.774Z,11.36
2019-04-01T06:41:34.718Z,11.39
2019-04-01T06:44:04.551Z,11.55
2019-04-01T06:46:34.488Z,11.80
2019-04-01T06:49:04.423Z,11.94
2019-04-01T06:51:34.256Z,11.93
2019-04-01T06:54:04.196Z,12.01
2019-04-01T06:56:34.127Z,12.14
2019-04-01T06:59:04.063Z,12.31
2019-04-01T07:01:33.787Z,12.54
2019-04-01T07:04:03.731Z,12.78
2019-04-01T07:06:33.665Z,12.99
2019-04-01T07:09:05.238Z,13.22
2019-04-01T07:11:35.318Z,13.24
2019-04-01T07:14:05.409Z,13.34
2019-04-01T07:16:35.241Z,13.45
2019-04-01T07:19:05.184Z,13.60
2019-04-01T07:21:34.951Z,13.76
2019-04-01T07:24:04.843Z,14.08
2019-04-01T07:26:34.780Z,14.45
2019-04-01T07:29:04.672Z,14.80
2019-04-01T07:31:34.659Z,14.74
2019-04-01T07:34:04.486Z,14.83
2019-04-01T07:36:34.635Z,14.94
2019-04-01T07:39:05.692Z,15.00
2019-04-01T07:41:35.519Z,15.30
2019-04-01T07:44:05.156Z,15.54
2019-04-01T07:46:35.091Z,15.72
2019-04-01T07:49:04.925Z,15.84
2019-04-01T07:51:38.327Z,16.05
2019-04-01T07:54:06.742Z,16.09
2019-04-01T07:56:36.427Z,16.08
2019-04-01T07:59:06.294Z,16.12
2019-04-01T08:04:13.223Z,16.91
2019-04-01T08:06:43.066Z,17.00
2019-04-01T08:09:13.103Z,17.21
2019-04-01T08:11:43.039Z,17.32
2019-04-01T08:14:12.981Z,17.18
2019-04-01T08:16:42.799Z,17.32
2019-04-01T08:19:13.065Z,17.34
2019-04-01T08:21:44.711Z,17.37
2019-04-01T08:24:14.688Z,17.58
2019-04-01T08:26:44.281Z,17.44
2019-04-01T08:29:28.959Z,17.78
2019-04-01T08:31:46.002Z,17.70
2019-04-01T08:34:15.934Z,17.61
2019-04-01T08:36:45.464Z,17.58
2019-04-01T08:39:15.401Z,17.73
2019-04-01T08:41:45.234Z,17.99
2019-04-01T08:44:15.169Z,17.99
2019-04-01T08:46:44.994Z,18.29
2019-04-01T08:49:16.852Z,18.60
2019-04-01T08:51:46.401Z,18.88
2019-04-01T08:54:16.344Z,18.96
2019-04-01T08:56:46.281Z,18.95
2019-04-01T08:59:16.114Z,19.07
2019-04-01T09:01:46.039Z,19.11
2019-04-01T09:04:15.668Z,19.17
2019-04-01T09:06:45.513Z,19.39
2019-04-01T09:09:15.338Z,19.47
2019-04-01T09:11:45.280Z,19.64
2019-04-01T09:14:15.112Z,19.60
2019-04-01T09:16:45.048Z,19.72
2019-04-01T09:19:14.984Z,19.69
2019-04-01T09:21:46.546Z,19.98
2019-04-01T09:24:16.185Z,19.73
2019-04-01T09:26:47.143Z,19.21
2019-04-01T09:29:16.867Z,19.33
2019-04-01T09:31:46.700Z,19.67
2019-04-01T09:34:16.536Z,19.25
2019-04-01T09:36:46.366Z,19.68
2019-04-01T09:39:16.318Z,19.45
2019-04-01T09:41:46.246Z,19.51
2019-04-01T09:44:15.969Z,19.57
2019-04-01T09:46:48.862Z,19.67
2019-04-01T09:49:16.966Z,19.97
2019-04-01T09:51:48.857Z,19.91
2019-04-01T09:54:18.278Z,20.01
2019-04-01T09:56:48.213Z,19.72
2019-04-01T09:59:17.935Z,20.17
2019-04-01T10:01:47.880Z,20.08
2019-04-01T10:04:17.833Z,20.24
2019-04-01T10:06:47.539Z,20.28
2019-04-01T10:09:17.481Z,20.53
2019-04-01T10:11:47.316Z,20.61
2019-04-01T10:14:17.148Z,20.85
2019-04-01T10:16:46.974Z,20.64
2019-04-01T10:19:16.918Z,20.42
2019-04-01T10:21:47.663Z,20.54
2019-04-01T10:24:17.607Z,20.79
2019-04-01T10:26:47.331Z,20.69
2019-04-01T10:29:17.275Z,20.87
2019-04-01T10:31:47.209Z,21.03
2019-04-01T10:34:16.932Z,20.39
2019-04-01T10:36:46.876Z,20.00
2019-04-01T10:39:16.702Z,19.99
2019-04-01T10:41:46.649Z,20.37
2019-04-01T10:44:16.582Z,20.62
2019-04-01T10:46:46.669Z,20.35
2019-04-01T10:49:16.245Z,20.07
2019-04-01T10:51:46.231Z,20.18
2019-04-01T10:54:16.321Z,20.16
2019-04-01T10:56:46.338Z,19.86
2019-04-01T10:59:16.543Z,20.20
2019-04-01T11:01:46.348Z,20.33
2019-04-01T11:04:16.273Z,20.36
2019-04-01T11:06:46.284Z,20.28
2019-04-01T11:09:17.091Z,20.42
2019-04-01T11:11:47.106Z,20.30
2019-04-01T11:14:17.037Z,20.21
2019-04-01T11:16:46.972Z,20.51
2019-04-01T11:19:16.797Z,20.63
2019-04-01T11:21:46.676Z,20.87
2019-04-01T11:24:16.566Z,21.00
2019-04-01T11:26:46.297Z,21.31
2019-04-01T11:29:16.129Z,20.69
2019-04-01T11:31:45.987Z,20.46
2019-04-01T11:34:15.941Z,20.42
2019-04-01T11:36:45.957Z,20.81
2019-04-01T11:39:15.895Z,21.22
2019-04-01T11:41:45.651Z,20.62
2019-04-01T11:44:15.570Z,20.65
2019-04-01T11:46:45.287Z,20.76
2019-04-01T11:49:15.186Z,20.43
2019-04-01T11:51:45.265Z,20.51
2019-04-01T11:54:15.077Z,21.06
2019-04-01T11:56:45.022Z,20.78
2019-04-01T11:59:14.641Z,20.69
2019-04-01T12:01:44.590Z,20.86
2019-04-01T12:04:14.410Z,20.75
2019-04-01T12:06:44.253Z,20.62
2019-04-01T12:09:14.192Z,21.27
2019-04-01T12:11:43.910Z,21.16
2019-04-01T12:14:15.799Z,20.80
2019-04-01T12:16:45.734Z,20.36
2019-04-01T12:19:18.163Z,20.51
2019-04-01T12:21:46.937Z,20.79
2019-04-01T12:24:16.871Z,20.98
2019-04-01T12:26:47.181Z,21.13
2019-04-01T12:29:17.255Z,20.64
2019-04-01T12:31:47.089Z,20.68
2019-04-01T12:34:17.692Z,20.88
2019-04-01T12:36:48.401Z,20.96
2019-04-01T12:39:18.941Z,21.15
2019-04-01T12:41:48.874Z,21.02
2019-04-01T12:44:18.709Z,20.99
2019-04-01T12:46:48.541Z,20.96
2019-04-01T12:49:18.477Z,20.77
2019-04-01T12:51:49.098Z,20.42
2019-04-01T12:54:19.882Z,19.92
2019-04-01T12:56:49.819Z,19.75
2019-04-01T12:59:19.753Z,20.27
2019-04-01T13:01:49.938Z,20.55
2019-04-01T13:04:19.821Z,20.49
2019-04-01T13:06:49.765Z,20.35
2019-04-01T13:09:19.589Z,20.22
2019-04-01T13:11:49.431Z,20.05
2019-04-01T13:14:19.265Z,20.21
2019-04-01T13:16:49.201Z,20.46
2019-04-01T13:19:19.034Z,20.65
2019-04-01T13:21:48.970Z,20.52
2019-04-01T13:24:18.905Z,20.10
2019-04-01T13:26:50.902Z,20.19
2019-04-01T13:29:19.903Z,19.93
2019-04-01T13:31:51.079Z,19.98
2019-04-01T13:34:20.980Z,19.72
2019-04-01T13:36:50.935Z,19.96
2019-04-01T13:39:20.873Z,20.07
2019-04-01T13:41:50.705Z,19.77
2019-04-01T13:44:20.640Z,19.79
2019-04-01T13:46:50.753Z,19.93
2019-04-01T13:49:21.126Z,20.15
2019-04-01T13:51:51.060Z,20.27
2019-04-01T13:54:20.895Z,20.37
2019-04-01T13:56:50.830Z,19.97
2019-04-01T13:59:20.654Z,19.50
2019-04-01T14:01:50.600Z,19.32
2019-04-01T14:04:20.425Z,19.18
2019-04-01T14:06:50.369Z,19.05
2019-04-01T14:09:20.921Z,19.04
2019-04-01T14:11:50.957Z,19.04
2019-04-01T14:14:23.346Z,19.00
2019-04-01T14:16:53.171Z,19.04
2019-04-01T14:19:23.283Z,18.98
2019-04-01T14:21:52.948Z,18.99
2019-04-01T14:24:23.765Z,18.89
2019-04-01T14:26:56.462Z,18.90
2019-04-01T14:29:24.496Z,18.82
2019-04-01T14:31:54.431Z,18.82
2019-04-01T14:34:24.356Z,19.02
2019-04-01T14:36:54.301Z,19.49
2019-04-01T14:39:24.029Z,19.07
2019-04-01T14:41:53.856Z,18.81
2019-04-01T14:44:23.691Z,18.76
2019-04-01T14:46:53.532Z,18.79
2019-04-01T14:49:23.356Z,18.75
2019-04-01T14:51:53.192Z,18.65
2019-04-01T14:54:23.045Z,18.53
2019-04-01T14:56:52.857Z,18.28
2019-04-01T14:59:25.362Z,18.15
2019-04-01T15:01:55.294Z,18.16
2019-04-01T15:04:25.229Z,18.15
2019-04-01T15:06:55.166Z,18.08
2019-04-01T15:09:25.100Z,18.06
2019-04-01T15:11:55.036Z,18.01
2019-04-01T15:14:24.973Z,17.96
2019-04-01T15:16:54.895Z,17.93
2019-04-01T15:19:24.843Z,17.81
2019-04-01T15:21:54.877Z,17.71
2019-04-01T15:24:24.512Z,17.59
2019-04-01T15:26:55.674Z,17.54
2019-04-01T15:29:25.191Z,17.43
2019-04-01T15:31:55.134Z,17.25
2019-04-01T15:34:25.073Z,17.13
2019-04-01T15:36:55.109Z,16.99
2019-04-01T15:39:25.248Z,16.97
2019-04-01T15:41:55.184Z,16.90
2019-04-01T15:44:25.008Z,16.85
2019-04-01T15:46:54.954Z,16.60
2019-04-01T15:49:24.992Z,16.47
2019-04-01T15:51:54.826Z,16.35
2019-04-01T15:54:24.650Z,16.27
2019-04-01T15:56:54.594Z,16.06
2019-04-01T15:59:24.316Z,15.97
2019-04-01T16:01:54.150Z,15.79
2019-04-01T16:04:24.098Z,15.70
2019-04-01T16:06:53.929Z,15.53
2019-04-01T16:09:23.752Z,15.44
2019-04-01T16:11:54.301Z,15.38
2019-04-01T16:14:24.247Z,15.30
2019-04-01T16:16:53.968Z,15.19
2019-04-01T16:19:24.108Z,15.12
2019-04-01T16:21:53.949Z,14.98
2019-04-01T16:24:23.886Z,14.87
2019-04-01T16:26:53.721Z,14.72
2019-04-01T16:58:18.867Z,13.61
2019-04-01T17:04:20.022Z,13.42
2019-04-01T17:06:49.871Z,13.29
2019-04-01T17:09:20.397Z,13.24
2019-04-01T17:11:54.185Z,13.15
2019-04-01T17:14:24.442Z,13.12
2019-04-01T17:16:55.523Z,13.01
2019-04-01T17:19:28.009Z,12.92
2019-04-01T17:21:58.677Z,12.86
2019-04-01T17:24:29.421Z,12.79
2019-04-01T17:27:07.235Z,12.76
2019-04-01T17:29:37.883Z,12.74
2019-04-01T17:32:08.639Z,12.63
2019-04-01T17:34:47.254Z,12.61
2019-04-01T17:37:17.721Z,12.55
2019-04-01T17:39:48.569Z,12.46
2019-04-01T17:42:19.327Z,12.37
2019-04-01T17:44:53.352Z,12.23
2019-04-01T17:47:27.043Z,12.15
2019-04-01T17:49:56.289Z,12.12
2019-04-01T17:52:27.046Z,12.08
2019-04-01T17:54:57.697Z,12.04
2019-04-01T17:57:28.433Z,12.02
2019-04-01T17:59:59.204Z,11.95
2019-04-01T18:02:31.065Z,11.87
2019-04-01T18:05:01.842Z,11.81
2019-04-01T18:07:32.488Z,11.78
2019-04-01T18:10:03.334Z,11.69
2019-04-01T18:12:34.200Z,11.62
2019-04-01T18:15:04.939Z,11.59
2019-04-01T18:17:35.608Z,11.55
2019-04-01T18:20:07.083Z,11.53
2019-04-01T18:22:37.935Z,11.49
2019-04-01T18:25:08.791Z,11.48
2019-04-01T18:27:40.461Z,11.46
2019-04-01T18:30:11.321Z,11.35
2019-04-01T18:32:42.059Z,11.26
2019-04-01T18:35:12.833Z,11.23
2019-04-01T18:37:43.485Z,11.17
2019-04-01T18:40:14.334Z,11.13
2019-04-01T18:42:45.189Z,11.07
2019-04-01T18:45:16.028Z,11.07
2019-04-01T18:47:45.903Z,11.04
2019-04-01T18:50:16.415Z,11.00
2019-04-01T18:52:47.185Z,10.92
2019-04-01T18:55:17.834Z,10.88
2019-04-01T18:57:48.587Z,10.80
2019-04-01T19:00:19.344Z,10.69
2019-04-01T19:02:50.078Z,10.59
2019-04-01T19:05:20.750Z,10.58
2019-04-01T19:07:51.710Z,10.54
2019-04-01T19:10:22.342Z,10.51
2019-04-01T19:13:05.101Z,10.45
2019-04-01T19:15:26.249Z,10.45
2019-04-01T19:17:57.165Z,10.35
2019-04-01T19:20:30.432Z,10.23
2019-04-01T19:23:01.213Z,10.15
2019-04-01T19:25:32.300Z,10.20
2019-04-01T19:28:04.184Z,10.09
2019-04-01T19:30:34.915Z,10.08
2019-04-01T19:33:06.800Z,10.00
2019-04-01T19:35:37.465Z,9.96
2019-04-01T19:38:08.219Z,9.95
2019-04-01T19:40:38.873Z,9.88
2019-04-01T19:43:09.708Z,9.78
2019-04-01T19:45:41.200Z,9.74
2019-04-01T19:48:11.831Z,9.73
2019-04-01T19:50:42.703Z,9.60
2019-04-01T19:53:13.447Z,9.56
2019-04-01T19:55:44.209Z,9.49
2019-04-01T19:58:14.863Z,9.44
2019-04-01T20:00:45.718Z,9.36
2019-04-01T20:03:16.469Z,9.32
2019-04-01T20:05:47.223Z,9.32
2019-04-01T20:08:17.981Z,9.27
2019-04-01T20:10:48.613Z,9.22
2019-04-01T20:13:19.281Z,9.11
2019-04-01T20:15:49.343Z,9.08
2019-04-01T20:18:20.059Z,9.09
2019-04-01T20:20:50.812Z,9.14
2019-04-01T20:23:22.151Z,9.08
2019-04-01T20:25:53.448Z,9.11
2019-04-01T20:28:25.134Z,9.05
2019-04-01T20:30:56.570Z,8.98
2019-04-01T20:33:27.345Z,8.95
2019-04-01T20:35:58.270Z,8.91
2019-04-01T20:38:29.056Z,8.84
2019-04-01T20:40:59.805Z,8.80
2019-04-01T20:43:30.581Z,8.77
2019-04-01T20:46:01.436Z,8.75
2019-04-01T20:48:32.264Z,8.77
2019-04-01T20:51:03.659Z,8.68
2019-04-01T20:53:34.521Z,8.70
2019-04-01T20:56:05.267Z,8.70
2019-04-01T20:58:35.924Z,8.63
2019-04-01T21:01:07.175Z,8.58
2019-04-01T21:03:38.130Z,8.60
2019-04-01T21:06:19.019Z,8.61
2019-04-01T21:09:04.539Z,8.65
2019-04-01T21:11:42.111Z,8.60
2019-04-01T21:14:12.968Z,8.51
2019-04-01T21:16:43.824Z,8.50
2019-04-01T21:19:15.357Z,8.61
2019-04-01T21:21:46.541Z,8.55
2019-04-01T21:24:25.274Z,8.57
2019-04-01T21:26:56.203Z,8.47
2019-04-01T21:29:26.985Z,8.49
2019-04-01T21:31:57.857Z,8.46
2019-04-01T21:34:28.612Z,8.41
2019-04-01T21:36:59.246Z,8.35
2019-04-01T21:39:30.057Z,8.36
2019-04-01T21:42:00.757Z,8.32
2019-04-01T21:44:31.629Z,8.26
2019-04-01T21:47:01.380Z,8.30
2019-04-01T21:49:31.892Z,8.31
2019-04-01T21:52:03.496Z,8.30
2019-04-01T21:54:34.948Z,8.24
2019-04-01T21:57:05.684Z,8.22
2019-04-01T21:59:36.558Z,8.08
2019-04-01T22:02:07.397Z,7.96
2019-04-01T22:04:41.308Z,7.86
2019-04-01T22:07:12.297Z,7.79
2019-04-01T22:09:43.053Z,7.76
2019-04-01T22:12:13.786Z,7.73
2019-04-01T22:14:44.457Z,7.68
2019-04-01T22:17:16.149Z,7.68
2019-04-01T22:19:47.501Z,7.63
2019-04-01T22:22:18.252Z,7.58
2019-04-01T22:24:49.005Z,7.54
2019-04-01T22:27:19.863Z,7.51
2019-04-01T22:29:51.527Z,7.44
2019-04-01T22:32:22.391Z,7.47
2019-04-01T22:34:53.147Z,7.44
2019-04-01T22:37:27.413Z,7.43
2019-04-01T22:39:56.089Z,7.44
2019-04-01T22:42:27.259Z,7.38
2019-04-01T22:44:58.210Z,7.41
2019-04-01T22:47:29.057Z,7.35
2019-04-01T22:49:59.815Z,7.32
2019-04-01T22:52:30.626Z,7.29
2019-04-01T22:55:01.529Z,7.30
2019-04-01T22:57:32.291Z,7.29
2019-04-01T23:00:03.041Z,7.27
2019-04-01T23:02:35.325Z,7.27
2019-04-01T23:05:08.271Z,7.25
2019-04-01T23:07:38.877Z,7.20
2019-04-01T23:10:09.614Z,7.18
2019-04-01T23:12:40.488Z,7.13
2019-04-01T23:15:11.123Z,7.05
2019-04-01T23:17:41.199Z,7.03
2019-04-01T23:20:11.728Z,6.98
2019-04-01T23:22:42.478Z,6.88
2019-04-01T23:25:13.425Z,6.82
2019-04-01T23:27:44.294Z,6.78
2019-04-01T23:30:16.071Z,6.75
2019-04-01T23:32:46.927Z,6.72
2019-04-01T23:35:17.682Z,6.67
2019-04-01T23:37:48.337Z,6.69
2019-04-01T23:40:19.188Z,6.65
2019-04-01T23:42:49.824Z,6.67
2019-04-01T23:45:20.986Z,6.66
2019-04-01T23:47:51.452Z,6.73
2019-04-01T23:50:22.205Z,6.72
2019-04-01T23:52:52.865Z,6.74
2019-04-01T23:55:22.806Z,6.82
2019-04-01T23:57:54.129Z,6.93
